ADDS METAR Data INFO
IDs: Format: Raw Decoded Include TAF

Data at: 1533 UTC 18 Jun 2018

KMIV 181454Z AUTO VRB05KT 10SM CLR 28/19 A3003 RMK AO2 SLP167 T02830194 58010
KMIV 181354Z AUTO VRB04KT 10SM CLR 27/21 A3005 RMK AO2 SLP173 T02720206
KMIV 181254Z AUTO 22005KT 10SM CLR 26/21 A3005 RMK AO2 SLP176 T02560211
KMIV 181154Z AUTO 20003KT 10SM CLR 23/22 A3006 RMK AO2 SLP177 T02330217 10233 20189 58006
KMIV 181054Z AUTO 00000KT 5SM BR FEW001 21/21 A3007 RMK AO2 SLP182 T02110206
KMIV 181037Z AUTO 00000KT 4SM BR BKN002 21/20 A3008 RMK AO2 T02060200
KMIV 181029Z AUTO 00000KT 2SM BR OVC002 20/20 A3008 RMK AO2 T02000200
KMIV 181007Z AUTO 00000KT 1/2SM FG VV002 19/19 A3008 RMK AO2 T01940189
KMIV 180954Z AUTO 00000KT 1/4SM FG VV001 19/19 A3008 RMK AO2 SLP183 T01940194
KMIV 180950Z AUTO 00000KT 1/2SM FG VV001 19/19 A3007 RMK AO2
KMIV 180939Z AUTO 00000KT 1/4SM FG VV001 19/19 A3007 RMK AO2 T01940189
KMIV 180914Z AUTO 00000KT 1 3/4SM BR OVC002 19/18 A3007 RMK AO2 VIS 3/4V4 T01890183
KMIV 180903Z AUTO 00000KT 5SM BR BKN002 19/19 A3007 RMK AO2 T01940189
KMIV 180854Z AUTO 13003KT 6SM BR SCT002 20/19 A3007 RMK AO2 SLP181 T02000194 58000
KMIV 180839Z AUTO 00000KT 4SM BR SCT004 20/20 A3007 RMK AO2 T02000200
KMIV 180835Z AUTO 00000KT 1 1/2SM BR SCT004 21/20 A3007 RMK AO2 T02060200
KMIV 180827Z AUTO 00000KT 3/4SM BR VV004 21/20 A3007 RMK AO2 T02060200
KMIV 180823Z AUTO 00000KT 1 3/4SM BR SCT004 21/20 A3008 RMK AO2 T02060200
KMIV 180811Z AUTO 00000KT 6SM BR FEW004 20/20 A3008 RMK AO2 T02000200
KMIV 180802Z AUTO 00000KT 7SM BKN004 21/21 A3008 RMK AO2 T02110206
KMIV 180754Z AUTO 00000KT 7SM BKN005 21/21 A3008 RMK AO2 SLP185 T02110206
KMIV 180729Z AUTO 25003KT 4SM BR OVC005 21/20 A3008 RMK AO2 T02060200
KMIV 180721Z AUTO 25003KT 1 3/4SM BR OVC005 20/19 A3008 RMK AO2 T02000194
KMIV 180710Z AUTO 00000KT 6SM BR BKN005 20/20 A3007 RMK AO2 T02000200
KMIV 180654Z AUTO 00000KT 4SM BR FEW004 20/19 A3007 RMK AO2 SLP181 T02000194
KMIV 180554Z AUTO 00000KT 9SM CLR 21/20 A3007 RMK AO2 SLP182 T02060200 10250 20206 57007
KMIV 180454Z AUTO 00000KT 10SM CLR 21/21 A3008 RMK AO2 SLP185 T02110206 403060144
KMIV 180354Z AUTO 18004KT 10SM CLR 22/20 A3009 RMK AO2 SLP186 T02170200
KMIV 180254Z AUTO 18003KT 10SM CLR 22/19 A3009 RMK AO2 SLP189 T02220194 53005
KMIV 180154Z AUTO 00000KT 10SM CLR 22/19 A3009 RMK AO2 SLP188 T02220194
KMIV 180054Z AUTO 00000KT 10SM CLR 23/18 A3007 RMK AO2 SLP183 T02330183
KMIV 172354Z AUTO 00000KT 10SM CLR 25/17 A3008 RMK AO2 SLP184 T02500172 10306 20250 53002
KMIV 172254Z AUTO 16007KT 10SM CLR 26/17 A3007 RMK AO2 SLP182 T02610167
KMIV 172154Z AUTO VRB04KT 10SM CLR 28/17 A3006 RMK AO2 SLP179 T02780167
KMIV 172054Z AUTO VRB05KT 10SM CLR 29/16 A3007 RMK AO2 SLP182 T02890156 51003
KMIV 171954Z AUTO VRB06KT 10SM CLR 30/14 A3007 RMK AO2 SLP182 T03000144
KMIV 171854Z AUTO 17006KT 10SM CLR 30/14 A3007 RMK AO2 SLP182 T03000144
KMIV 171754Z AUTO 19005KT 10SM CLR 30/16 A3006 RMK AO2 SLP179 T03000161 10300 20228 58013
KMIV 171654Z AUTO 00000KT 10SM CLR 29/15 A3008 RMK AO2 SLP185 T02940150
KMIV 171554Z AUTO 26004KT 10SM CLR 29/17 A3010 RMK AO2 SLP191 T02940167
KMIV 171454Z AUTO 00000KT 10SM CLR 28/17 A3010 RMK AO2 SLP191 T02780172 51007
KMIV 171354Z AUTO 00000KT 10SM CLR 27/19 A3010 RMK AO2 SLP191 T02670189
KMIV 171254Z AUTO 00000KT 10SM CLR 24/19 A3010 RMK AO2 SLP190 T02440189
KMIV 171154Z AUTO 00000KT 10SM CLR 23/18 A3008 RMK AO2 SLP184 T02280183 10228 20144 51010
KMIV 171054Z AUTO 00000KT 10SM CLR 19/16 A3007 RMK AO2 SLP181 T01890161
KMIV 170954Z AUTO 00000KT 10SM CLR 15/14 A3006 RMK AO2 SLP178 T01500144
KMIV 170854Z AUTO 00000KT 9SM CLR 16/15 A3005 RMK AO2 SLP174 T01560150 55004
KMIV 170754Z AUTO 00000KT 10SM CLR 16/15 A3004 RMK AO2 SLP171 T01610150
KMIV 170654Z AUTO 00000KT 10SM CLR 16/15 A3005 RMK AO2 SLP175 T01610150
KMIV 170554Z AUTO 00000KT 10SM CLR 17/16 A3006 RMK AO2 SLP178 T01720156 10233 20167 50007
KMIV 170454Z AUTO 00000KT 10SM CLR 17/16 A3007 RMK AO2 SLP179 T01720161 402890117
KMIV 170354Z AUTO 00000KT 10SM CLR 18/16 A3005 RMK AO2 SLP175 T01780161